sensor_id;sensor_type;location;lat;lon;timestamp;temperature;humidity
3678;DHT22;1855;50.934;6.958;2023-05-10T00:00:19;12.50;99.90
3678;DHT22;1855;50.934;6.958;2023-05-10T00:02:45;12.40;99.90
3678;DHT22;1855;50.934;6.958;2023-05-10T00:05:12;12.40;99.90
3678;DHT22;1855;50.934;6.958;2023-05-10T00:07:39;12.40;99.90
3678;DHT22;1855;50.934;6.958;2023-05-10T00:10:06;12.40;99.90
3678;DHT22;1855;50.934;6.958;2023-05-10T00:12:33;12.40;99.90
3678;DHT22;1855;50.934;6.958;2023-05-10T00:15:02;12.40;99.90
3678;DHT22;1855;50.934;6.958;2023-05-10T00:17:29;12.40;99.90
3678;DHT22;1855;50.934;6.958;2023-05-10T00:19:55;12.40;99.90
3678;DHT22;1855;50.934;6.958;2023-05-10T00:22:22;12.40;99.90
3678;DHT22;1855;50.934;6.958;2023-05-10T00:24:49;12.50;99.90
3678;DHT22;1855;50.934;6.958;2023-05-10T00:27:17;12.50;99.90
3678;DHT22;1855;50.934;6.958;2023-05-10T00:29:44;12.50;99.90
3678;DHT22;1855;50.934;6.958;2023-05-10T00:32:12;12.50;99.90
3678;DHT22;1855;50.934;6.958;2023-05-10T00:34:39;12.50;99.90
3678;DHT22;1855;50.934;6.958;2023-05-10T00:37:06;12.50;99.90
3678;DHT22;1855;50.934;6.958;2023-05-10T00:39:32;12.50;99.90
3678;DHT22;1855;50.934;6.958;2023-05-10T00:41:59;12.50;99.90
3678;DHT22;1855;50.934;6.958;2023-05-10T00:44:26;12.50;99.90
3678;DHT22;1855;50.934;6.958;2023-05-10T00:46:53;12.60;99.90
3678;DHT22;1855;50.934;6.958;2023-05-10T00:49:21;12.60;99.90
3678;DHT22;1855;50.934;6.958;2023-05-10T00:51:48;12.60;99.90
3678;DHT22;1855;50.934;6.958;2023-05-10T00:54:15;12.70;99.90
3678;DHT22;1855;50.934;6.958;2023-05-10T00:56:42;12.60;99.90
3678;DHT22;1855;50.934;6.958;2023-05-10T00:59:14;12.60;99.90
3678;DHT22;1855;50.934;6.958;2023-05-10T01:01:41;12.60;99.90
3678;DHT22;1855;50.934;6.958;2023-05-10T01:04:09;12.60;99.90
3678;DHT22;1855;50.934;6.958;2023-05-10T01:06:38;12.50;99.90
3678;DHT22;1855;50.934;6.958;2023-05-10T01:09:05;12.50;99.90
3678;DHT22;1855;50.934;6.958;2023-05-10T01:11:32;12.50;99.90
3678;DHT22;1855;50.934;6.958;2023-05-10T01:13:59;12.50;99.90
3678;DHT22;1855;50.934;6.958;2023-05-10T01:16:26;12.50;99.90
3678;DHT22;1855;50.934;6.958;2023-05-10T01:18:54;12.50;99.90
3678;DHT22;1855;50.934;6.958;2023-05-10T01:21:27;12.60;99.90
3678;DHT22;1855;50.934;6.958;2023-05-10T01:24:12;12.60;99.90
3678;DHT22;1855;50.934;6.958;2023-05-10T01:29:53;12.60;99.90
3678;DHT22;1855;50.934;6.958;2023-05-10T01:32:30;12.60;99.90
3678;DHT22;1855;50.934;6.958;2023-05-10T01:35:02;12.60;99.90
3678;DHT22;1855;50.934;6.958;2023-05-10T01:37:36;12.60;99.90
3678;DHT22;1855;50.934;6.958;2023-05-10T01:40:13;12.60;99.90
3678;DHT22;1855;50.934;6.958;2023-05-10T01:42:47;12.60;99.90
3678;DHT22;1855;50.934;6.958;2023-05-10T01:45:20;12.60;99.90
3678;DHT22;1855;50.934;6.958;2023-05-10T01:47:57;12.60;99.90
3678;DHT22;1855;50.934;6.958;2023-05-10T01:50:30;12.60;99.90
3678;DHT22;1855;50.934;6.958;2023-05-10T01:52:59;12.60;99.90
3678;DHT22;1855;50.934;6.958;2023-05-10T01:55:30;12.70;99.90
3678;DHT22;1855;50.934;6.958;2023-05-10T01:58:03;12.60;99.90
3678;DHT22;1855;50.934;6.958;2023-05-10T02:00:32;12.50;99.90
3678;DHT22;1855;50.934;6.958;2023-05-10T02:03:05;12.60;99.90
3678;DHT22;1855;50.934;6.958;2023-05-10T02:05:32;12.60;99.90
3678;DHT22;1855;50.934;6.958;2023-05-10T02:08:01;12.50;99.90
3678;DHT22;1855;50.934;6.958;2023-05-10T02:10:30;12.50;99.90
3678;DHT22;1855;50.934;6.958;2023-05-10T02:12:59;12.60;99.90
3678;DHT22;1855;50.934;6.958;2023-05-10T02:15:26;12.60;99.90
3678;DHT22;1855;50.934;6.958;2023-05-10T02:17:55;12.50;99.90
3678;DHT22;1855;50.934;6.958;2023-05-10T02:20:24;12.60;99.90
3678;DHT22;1855;50.934;6.958;2023-05-10T02:22:53;12.60;99.90
3678;DHT22;1855;50.934;6.958;2023-05-10T02:25:21;12.50;99.90
3678;DHT22;1855;50.934;6.958;2023-05-10T02:27:49;12.60;99.90
3678;DHT22;1855;50.934;6.958;2023-05-10T02:30:16;12.60;99.90
3678;DHT22;1855;50.934;6.958;2023-05-10T02:32:44;12.50;99.90
3678;DHT22;1855;50.934;6.958;2023-05-10T02:35:12;12.50;99.90
3678;DHT22;1855;50.934;6.958;2023-05-10T02:37:41;12.60;99.90
3678;DHT22;1855;50.934;6.958;2023-05-10T02:40:09;12.50;99.90
3678;DHT22;1855;50.934;6.958;2023-05-10T02:42:37;12.60;99.90
3678;DHT22;1855;50.934;6.958;2023-05-10T02:45:10;12.60;99.90
3678;DHT22;1855;50.934;6.958;2023-05-10T02:47:38;12.60;99.90
3678;DHT22;1855;50.934;6.958;2023-05-10T02:50:06;12.60;99.90
3678;DHT22;1855;50.934;6.958;2023-05-10T02:52:41;12.60;99.90
3678;DHT22;1855;50.934;6.958;2023-05-10T02:55:11;12.70;99.90
3678;DHT22;1855;50.934;6.958;2023-05-10T02:57:43;12.60;99.90
3678;DHT22;1855;50.934;6.958;2023-05-10T03:00:12;12.60;99.90
3678;DHT22;1855;50.934;6.958;2023-05-10T03:02:38;12.60;99.90
3678;DHT22;1855;50.934;6.958;2023-05-10T03:05:06;12.70;99.90
3678;DHT22;1855;50.934;6.958;2023-05-10T03:07:33;12.70;99.90
3678;DHT22;1855;50.934;6.958;2023-05-10T03:10:02;12.60;99.90
3678;DHT22;1855;50.934;6.958;2023-05-10T03:12:38;12.60;99.90
3678;DHT22;1855;50.934;6.958;2023-05-10T03:15:14;12.50;99.90
3678;DHT22;1855;50.934;6.958;2023-05-10T03:17:47;12.50;99.90
3678;DHT22;1855;50.934;6.958;2023-05-10T03:20:22;12.40;99.90
3678;DHT22;1855;50.934;6.958;2023-05-10T03:22:53;12.40;99.90
3678;DHT22;1855;50.934;6.958;2023-05-10T03:25:23;12.40;99.90
3678;DHT22;1855;50.934;6.958;2023-05-10T03:27:50;12.40;99.90
3678;DHT22;1855;50.934;6.958;2023-05-10T03:30:18;12.40;99.90
3678;DHT22;1855;50.934;6.958;2023-05-10T03:32:45;12.40;99.90
3678;DHT22;1855;50.934;6.958;2023-05-10T03:35:12;12.40;99.90
3678;DHT22;1855;50.934;6.958;2023-05-10T03:37:39;12.40;99.90
3678;DHT22;1855;50.934;6.958;2023-05-10T03:40:07;12.40;99.90
3678;DHT22;1855;50.934;6.958;2023-05-10T03:42:35;12.40;99.90
3678;DHT22;1855;50.934;6.958;2023-05-10T03:45:02;12.40;99.90
3678;DHT22;1855;50.934;6.958;2023-05-10T03:47:29;12.50;99.90
3678;DHT22;1855;50.934;6.958;2023-05-10T03:49:56;12.50;99.90
3678;DHT22;1855;50.934;6.958;2023-05-10T03:52:22;12.50;99.90
3678;DHT22;1855;50.934;6.958;2023-05-10T03:54:49;12.50;99.90
3678;DHT22;1855;50.934;6.958;2023-05-10T03:57:16;12.50;99.90
3678;DHT22;1855;50.934;6.958;2023-05-10T03:59:44;12.50;99.90
3678;DHT22;1855;50.934;6.958;2023-05-10T04:02:11;12.50;99.90
3678;DHT22;1855;50.934;6.958;2023-05-10T04:04:37;12.50;99.90
3678;DHT22;1855;50.934;6.958;2023-05-10T04:07:04;12.50;99.90
3678;DHT22;1855;50.934;6.958;2023-05-10T04:09:31;12.50;99.90
3678;DHT22;1855;50.934;6.958;2023-05-10T04:11:58;12.50;99.90
3678;DHT22;1855;50.934;6.958;2023-05-10T04:14:25;12.50;99.90
3678;DHT22;1855;50.934;6.958;2023-05-10T04:16:53;12.50;99.90
3678;DHT22;1855;50.934;6.958;2023-05-10T04:19:20;12.50;99.90
3678;DHT22;1855;50.934;6.958;2023-05-10T04:21:47;12.50;99.90
3678;DHT22;1855;50.934;6.958;2023-05-10T04:24:14;12.50;99.90
3678;DHT22;1855;50.934;6.958;2023-05-10T04:26:41;12.50;99.90
3678;DHT22;1855;50.934;6.958;2023-05-10T04:29:07;12.50;99.90
3678;DHT22;1855;50.934;6.958;2023-05-10T04:31:34;12.50;99.90
3678;DHT22;1855;50.934;6.958;2023-05-10T04:34:03;12.50;99.90
3678;DHT22;1855;50.934;6.958;2023-05-10T04:36:29;12.50;99.90
3678;DHT22;1855;50.934;6.958;2023-05-10T04:38:57;12.50;99.90
3678;DHT22;1855;50.934;6.958;2023-05-10T04:41:24;12.50;99.90
3678;DHT22;1855;50.934;6.958;2023-05-10T04:43:51;12.50;99.90
3678;DHT22;1855;50.934;6.958;2023-05-10T04:46:18;12.50;99.90
3678;DHT22;1855;50.934;6.958;2023-05-10T04:48:44;12.50;99.90
3678;DHT22;1855;50.934;6.958;2023-05-10T04:51:12;12.40;99.90
3678;DHT22;1855;50.934;6.958;2023-05-10T04:53:39;12.40;99.90
3678;DHT22;1855;50.934;6.958;2023-05-10T04:56:06;12.40;99.90
3678;DHT22;1855;50.934;6.958;2023-05-10T04:58:33;12.40;99.90
3678;DHT22;1855;50.934;6.958;2023-05-10T05:01:05;12.40;99.90
3678;DHT22;1855;50.934;6.958;2023-05-10T05:03:32;12.50;99.90
3678;DHT22;1855;50.934;6.958;2023-05-10T05:05:59;12.40;99.90
3678;DHT22;1855;50.934;6.958;2023-05-10T05:08:27;12.40;99.90
3678;DHT22;1855;50.934;6.958;2023-05-10T05:10:54;12.50;99.90
3678;DHT22;1855;50.934;6.958;2023-05-10T05:13:21;12.50;99.90
3678;DHT22;1855;50.934;6.958;2023-05-10T05:15:47;12.50;99.90
3678;DHT22;1855;50.934;6.958;2023-05-10T05:18:14;12.50;99.90
3678;DHT22;1855;50.934;6.958;2023-05-10T05:20:41;12.50;99.90
3678;DHT22;1855;50.934;6.958;2023-05-10T05:23:08;12.50;99.90
3678;DHT22;1855;50.934;6.958;2023-05-10T05:25:36;12.50;99.90
3678;DHT22;1855;50.934;6.958;2023-05-10T05:28:02;12.50;99.90
3678;DHT22;1855;50.934;6.958;2023-05-10T05:30:29;12.50;99.90
3678;DHT22;1855;50.934;6.958;2023-05-10T05:32:56;12.50;99.90
3678;DHT22;1855;50.934;6.958;2023-05-10T05:35:23;12.50;99.90
3678;DHT22;1855;50.934;6.958;2023-05-10T05:37:50;12.50;99.90
3678;DHT22;1855;50.934;6.958;2023-05-10T05:40:16;12.50;99.90
3678;DHT22;1855;50.934;6.958;2023-05-10T05:42:44;12.40;99.90
3678;DHT22;1855;50.934;6.958;2023-05-10T05:45:11;12.50;99.90
3678;DHT22;1855;50.934;6.958;2023-05-10T05:47:39;12.50;99.90
3678;DHT22;1855;50.934;6.958;2023-05-10T05:50:06;12.50;99.90
3678;DHT22;1855;50.934;6.958;2023-05-10T05:52:33;12.50;99.90
3678;DHT22;1855;50.934;6.958;2023-05-10T05:55:00;12.60;99.90
3678;DHT22;1855;50.934;6.958;2023-05-10T05:57:26;12.60;99.90
3678;DHT22;1855;50.934;6.958;2023-05-10T05:59:54;12.70;99.90
3678;DHT22;1855;50.934;6.958;2023-05-10T06:02:21;12.80;99.90
3678;DHT22;1855;50.934;6.958;2023-05-10T06:04:48;12.80;99.90
3678;DHT22;1855;50.934;6.958;2023-05-10T06:07:14;12.90;99.90
3678;DHT22;1855;50.934;6.958;2023-05-10T06:09:42;13.00;99.90
3678;DHT22;1855;50.934;6.958;2023-05-10T06:12:10;13.00;99.90
3678;DHT22;1855;50.934;6.958;2023-05-10T06:14:38;13.00;99.90
3678;DHT22;1855;50.934;6.958;2023-05-10T06:17:06;13.10;99.90
3678;DHT22;1855;50.934;6.958;2023-05-10T06:19:32;13.10;99.90
3678;DHT22;1855;50.934;6.958;2023-05-10T06:21:59;13.10;99.90
3678;DHT22;1855;50.934;6.958;2023-05-10T06:24:26;13.10;99.90
3678;DHT22;1855;50.934;6.958;2023-05-10T06:26:53;13.20;99.90
3678;DHT22;1855;50.934;6.958;2023-05-10T06:29:20;13.20;99.90
3678;DHT22;1855;50.934;6.958;2023-05-10T06:31:47;13.20;99.90
3678;DHT22;1855;50.934;6.958;2023-05-10T06:34:15;13.20;99.90
3678;DHT22;1855;50.934;6.958;2023-05-10T06:36:42;13.20;99.90
3678;DHT22;1855;50.934;6.958;2023-05-10T06:39:08;13.20;99.90
3678;DHT22;1855;50.934;6.958;2023-05-10T06:41:37;13.30;99.90
3678;DHT22;1855;50.934;6.958;2023-05-10T06:44:04;13.30;99.90
3678;DHT22;1855;50.934;6.958;2023-05-10T06:46:30;13.20;99.90
3678;DHT22;1855;50.934;6.958;2023-05-10T06:48:57;13.30;99.90
3678;DHT22;1855;50.934;6.958;2023-05-10T06:51:25;13.30;99.90
3678;DHT22;1855;50.934;6.958;2023-05-10T06:53:52;13.20;99.90
3678;DHT22;1855;50.934;6.958;2023-05-10T06:56:19;13.20;99.90
3678;DHT22;1855;50.934;6.958;2023-05-10T06:58:47;13.20;99.90
3678;DHT22;1855;50.934;6.958;2023-05-10T07:01:13;13.20;99.90
3678;DHT22;1855;50.934;6.958;2023-05-10T07:03:40;13.20;99.90
3678;DHT22;1855;50.934;6.958;2023-05-10T07:06:07;13.10;99.90
3678;DHT22;1855;50.934;6.958;2023-05-10T07:11:14;13.10;99.90
3678;DHT22;1855;50.934;6.958;2023-05-10T07:13:40;13.00;99.90
3678;DHT22;1855;50.934;6.958;2023-05-10T07:16:09;12.90;99.90
3678;DHT22;1855;50.934;6.958;2023-05-10T07:18:36;12.90;99.90
3678;DHT22;1855;50.934;6.958;2023-05-10T07:21:03;12.90;99.90
3678;DHT22;1855;50.934;6.958;2023-05-10T07:23:30;12.90;99.90
3678;DHT22;1855;50.934;6.958;2023-05-10T07:25:58;12.90;99.90
3678;DHT22;1855;50.934;6.958;2023-05-10T07:28:25;13.00;99.90
3678;DHT22;1855;50.934;6.958;2023-05-10T07:30:52;13.20;99.90
3678;DHT22;1855;50.934;6.958;2023-05-10T07:33:18;13.30;99.90
3678;DHT22;1855;50.934;6.958;2023-05-10T07:35:45;13.30;99.90
3678;DHT22;1855;50.934;6.958;2023-05-10T07:38:12;13.30;99.90
3678;DHT22;1855;50.934;6.958;2023-05-10T07:40:39;13.30;99.90
3678;DHT22;1855;50.934;6.958;2023-05-10T07:43:07;13.20;99.90
3678;DHT22;1855;50.934;6.958;2023-05-10T07:45:34;13.10;99.90
3678;DHT22;1855;50.934;6.958;2023-05-10T07:48:01;13.10;99.90
3678;DHT22;1855;50.934;6.958;2023-05-10T07:50:28;13.10;99.90
3678;DHT22;1855;50.934;6.958;2023-05-10T07:52:54;13.10;99.90
3678;DHT22;1855;50.934;6.958;2023-05-10T07:55:21;13.10;99.90
3678;DHT22;1855;50.934;6.958;2023-05-10T07:57:48;13.20;99.90
3678;DHT22;1855;50.934;6.958;2023-05-10T08:00:19;13.20;99.90
3678;DHT22;1855;50.934;6.958;2023-05-10T08:02:46;13.20;99.90
3678;DHT22;1855;50.934;6.958;2023-05-10T08:05:13;13.30;99.90
3678;DHT22;1855;50.934;6.958;2023-05-10T08:07:40;13.40;99.90
3678;DHT22;1855;50.934;6.958;2023-05-10T08:10:09;13.50;99.90
3678;DHT22;1855;50.934;6.958;2023-05-10T08:12:36;13.70;99.90
3678;DHT22;1855;50.934;6.958;2023-05-10T08:15:04;13.80;99.90
3678;DHT22;1855;50.934;6.958;2023-05-10T08:17:32;13.90;99.90
3678;DHT22;1855;50.934;6.958;2023-05-10T08:19:59;14.00;99.90
3678;DHT22;1855;50.934;6.958;2023-05-10T08:22:26;14.10;99.90
3678;DHT22;1855;50.934;6.958;2023-05-10T08:24:52;14.10;99.90
3678;DHT22;1855;50.934;6.958;2023-05-10T08:27:19;14.10;99.90
3678;DHT22;1855;50.934;6.958;2023-05-10T08:29:46;14.10;99.90
3678;DHT22;1855;50.934;6.958;2023-05-10T08:32:13;14.10;99.90
3678;DHT22;1855;50.934;6.958;2023-05-10T08:34:41;14.10;99.90
3678;DHT22;1855;50.934;6.958;2023-05-10T08:37:07;14.20;99.90
3678;DHT22;1855;50.934;6.958;2023-05-10T08:39:36;14.30;99.90
3678;DHT22;1855;50.934;6.958;2023-05-10T08:42:04;14.30;99.90
3678;DHT22;1855;50.934;6.958;2023-05-10T08:44:32;14.10;99.90
3678;DHT22;1855;50.934;6.958;2023-05-10T08:47:04;13.80;99.90
3678;DHT22;1855;50.934;6.958;2023-05-10T08:49:31;13.60;99.90
3678;DHT22;1855;50.934;6.958;2023-05-10T08:52:03;13.40;99.90
3678;DHT22;1855;50.934;6.958;2023-05-10T08:54:31;13.40;99.90
3678;DHT22;1855;50.934;6.958;2023-05-10T08:56:58;13.50;99.90
3678;DHT22;1855;50.934;6.958;2023-05-10T08:59:25;13.50;99.90
3678;DHT22;1855;50.934;6.958;2023-05-10T09:01:52;13.50;99.90
3678;DHT22;1855;50.934;6.958;2023-05-10T09:04:21;13.50;99.90
3678;DHT22;1855;50.934;6.958;2023-05-10T09:06:48;13.50;99.90
3678;DHT22;1855;50.934;6.958;2023-05-10T09:09:16;13.50;99.90
3678;DHT22;1855;50.934;6.958;2023-05-10T09:11:44;13.50;99.90
3678;DHT22;1855;50.934;6.958;2023-05-10T09:14:11;13.50;99.90
3678;DHT22;1855;50.934;6.958;2023-05-10T09:16:39;13.70;99.90
3678;DHT22;1855;50.934;6.958;2023-05-10T09:19:06;13.80;99.90
3678;DHT22;1855;50.934;6.958;2023-05-10T09:21:34;13.80;99.90
3678;DHT22;1855;50.934;6.958;2023-05-10T09:24:03;14.00;99.90
3678;DHT22;1855;50.934;6.958;2023-05-10T09:26:31;14.10;99.90
3678;DHT22;1855;50.934;6.958;2023-05-10T09:28:59;14.10;99.90
3678;DHT22;1855;50.934;6.958;2023-05-10T09:31:43;14.20;99.90
3678;DHT22;1855;50.934;6.958;2023-05-10T09:34:10;14.30;99.90
3678;DHT22;1855;50.934;6.958;2023-05-10T09:36:37;14.40;99.90
3678;DHT22;1855;50.934;6.958;2023-05-10T09:39:16;14.40;99.90
3678;DHT22;1855;50.934;6.958;2023-05-10T09:41:44;14.40;99.90
3678;DHT22;1855;50.934;6.958;2023-05-10T09:44:11;14.10;99.90
3678;DHT22;1855;50.934;6.958;2023-05-10T09:46:38;13.80;99.90
3678;DHT22;1855;50.934;6.958;2023-05-10T09:49:05;13.60;99.90
3678;DHT22;1855;50.934;6.958;2023-05-10T09:51:32;13.40;99.90
3678;DHT22;1855;50.934;6.958;2023-05-10T09:54:14;13.20;99.90
3678;DHT22;1855;50.934;6.958;2023-05-10T09:56:41;13.20;99.90
3678;DHT22;1855;50.934;6.958;2023-05-10T09:59:11;13.20;99.90
3678;DHT22;1855;50.934;6.958;2023-05-10T10:01:38;13.20;99.90
3678;DHT22;1855;50.934;6.958;2023-05-10T10:04:07;13.30;99.90
3678;DHT22;1855;50.934;6.958;2023-05-10T10:06:37;13.50;99.90
3678;DHT22;1855;50.934;6.958;2023-05-10T10:09:05;13.70;99.90
3678;DHT22;1855;50.934;6.958;2023-05-10T10:11:34;14.00;99.90
3678;DHT22;1855;50.934;6.958;2023-05-10T10:14:01;14.30;99.90
3678;DHT22;1855;50.934;6.958;2023-05-10T10:16:30;14.60;99.90
3678;DHT22;1855;50.934;6.958;2023-05-10T10:18:58;15.00;99.90
3678;DHT22;1855;50.934;6.958;2023-05-10T10:21:24;15.30;99.90
3678;DHT22;1855;50.934;6.958;2023-05-10T10:23:51;15.50;99.90
3678;DHT22;1855;50.934;6.958;2023-05-10T10:26:19;15.60;99.90
3678;DHT22;1855;50.934;6.958;2023-05-10T10:28:51;15.80;98.70
3678;DHT22;1855;50.934;6.958;2023-05-10T10:31:26;16.00;99.40
3678;DHT22;1855;50.934;6.958;2023-05-10T10:34:01;16.30;98.70
3678;DHT22;1855;50.934;6.958;2023-05-10T10:36:30;16.50;97.70
3678;DHT22;1855;50.934;6.958;2023-05-10T10:38:59;16.80;97.70
3678;DHT22;1855;50.934;6.958;2023-05-10T10:41:28;17.10;97.00
3678;DHT22;1855;50.934;6.958;2023-05-10T10:44:26;17.50;96.40
3678;DHT22;1855;50.934;6.958;2023-05-10T10:47:02;17.70;93.90
3678;DHT22;1855;50.934;6.958;2023-05-10T10:49:33;17.80;93.50
3678;DHT22;1855;50.934;6.958;2023-05-10T10:52:21;17.80;92.50
3678;DHT22;1855;50.934;6.958;2023-05-10T10:54:52;17.70;91.80
3678;DHT22;1855;50.934;6.958;2023-05-10T10:57:19;17.50;91.40
3678;DHT22;1855;50.934;6.958;2023-05-10T10:59:47;17.40;91.70
3678;DHT22;1855;50.934;6.958;2023-05-10T11:02:33;17.30;91.30
3678;DHT22;1855;50.934;6.958;2023-05-10T11:08:19;17.40;91.40
3678;DHT22;1855;50.934;6.958;2023-05-10T11:11:04;17.30;91.20
3678;DHT22;1855;50.934;6.958;2023-05-10T11:13:34;17.30;91.10
3678;DHT22;1855;50.934;6.958;2023-05-10T11:16:11;17.20;91.10
3678;DHT22;1855;50.934;6.958;2023-05-10T11:18:38;16.90;91.70
3678;DHT22;1855;50.934;6.958;2023-05-10T11:21:08;16.90;92.30
3678;DHT22;1855;50.934;6.958;2023-05-10T11:23:48;17.00;91.90
3678;DHT22;1855;50.934;6.958;2023-05-10T11:26:15;17.00;92.40
3678;DHT22;1855;50.934;6.958;2023-05-10T11:28:43;16.80;91.80
3678;DHT22;1855;50.934;6.958;2023-05-10T11:31:10;16.60;91.60
3678;DHT22;1855;50.934;6.958;2023-05-10T11:33:42;16.40;92.00
3678;DHT22;1855;50.934;6.958;2023-05-10T11:36:13;16.30;92.90
3678;DHT22;1855;50.934;6.958;2023-05-10T11:38:40;16.30;93.70
3678;DHT22;1855;50.934;6.958;2023-05-10T11:41:08;16.50;93.90
3678;DHT22;1855;50.934;6.958;2023-05-10T11:43:35;16.80;92.50
3678;DHT22;1855;50.934;6.958;2023-05-10T11:46:04;16.80;92.10
3678;DHT22;1855;50.934;6.958;2023-05-10T11:48:31;16.70;91.70
3678;DHT22;1855;50.934;6.958;2023-05-10T11:50:58;16.50;91.00
3678;DHT22;1855;50.934;6.958;2023-05-10T11:53:27;16.20;92.20
3678;DHT22;1855;50.934;6.958;2023-05-10T11:55:54;16.00;91.40
3678;DHT22;1855;50.934;6.958;2023-05-10T11:58:20;15.90;91.80
3678;DHT22;1855;50.934;6.958;2023-05-10T12:00:49;15.90;91.60
3678;DHT22;1855;50.934;6.958;2023-05-10T12:03:17;16.00;91.30
3678;DHT22;1855;50.934;6.958;2023-05-10T12:05:43;16.30;91.80
3678;DHT22;1855;50.934;6.958;2023-05-10T12:08:11;16.50;90.80
3678;DHT22;1855;50.934;6.958;2023-05-10T12:10:40;16.70;89.70
3678;DHT22;1855;50.934;6.958;2023-05-10T12:13:11;16.70;89.00
3678;DHT22;1855;50.934;6.958;2023-05-10T12:15:39;16.80;88.30
3678;DHT22;1855;50.934;6.958;2023-05-10T12:18:08;16.80;89.20
3678;DHT22;1855;50.934;6.958;2023-05-10T12:20:36;16.80;90.10
3678;DHT22;1855;50.934;6.958;2023-05-10T12:23:03;16.90;89.70
3678;DHT22;1855;50.934;6.958;2023-05-10T12:25:32;17.10;87.20
3678;DHT22;1855;50.934;6.958;2023-05-10T12:28:03;17.40;86.00
3678;DHT22;1855;50.934;6.958;2023-05-10T12:30:31;17.70;83.00
3678;DHT22;1855;50.934;6.958;2023-05-10T12:33:02;17.90;80.50
3678;DHT22;1855;50.934;6.958;2023-05-10T12:35:32;18.10;78.30
3678;DHT22;1855;50.934;6.958;2023-05-10T12:37:59;18.20;78.50
3678;DHT22;1855;50.934;6.958;2023-05-10T12:40:26;18.30;79.60
3678;DHT22;1855;50.934;6.958;2023-05-10T12:42:53;18.50;79.50
3678;DHT22;1855;50.934;6.958;2023-05-10T12:45:21;18.70;77.40
3678;DHT22;1855;50.934;6.958;2023-05-10T12:47:48;18.90;75.60
3678;DHT22;1855;50.934;6.958;2023-05-10T12:50:15;19.00;74.00
3678;DHT22;1855;50.934;6.958;2023-05-10T12:52:41;19.40;72.60
3678;DHT22;1855;50.934;6.958;2023-05-10T12:55:08;19.80;71.50
3678;DHT22;1855;50.934;6.958;2023-05-10T12:57:35;20.50;68.90
3678;DHT22;1855;50.934;6.958;2023-05-10T13:00:02;20.70;67.40
3678;DHT22;1855;50.934;6.958;2023-05-10T13:02:31;20.70;64.80
3678;DHT22;1855;50.934;6.958;2023-05-10T13:04:58;20.80;65.20
3678;DHT22;1855;50.934;6.958;2023-05-10T13:07:25;20.90;66.50
3678;DHT22;1855;50.934;6.958;2023-05-10T13:09:52;21.20;64.80
3678;DHT22;1855;50.934;6.958;2023-05-10T13:12:18;21.60;65.00
3678;DHT22;1855;50.934;6.958;2023-05-10T13:14:45;22.00;61.10
3678;DHT22;1855;50.934;6.958;2023-05-10T13:17:12;22.50;58.10
3678;DHT22;1855;50.934;6.958;2023-05-10T13:19:40;22.60;56.00
3678;DHT22;1855;50.934;6.958;2023-05-10T13:22:07;22.90;54.80
3678;DHT22;1855;50.934;6.958;2023-05-10T13:24:33;23.30;52.10
3678;DHT22;1855;50.934;6.958;2023-05-10T13:27:00;23.40;50.00
3678;DHT22;1855;50.934;6.958;2023-05-10T13:29:27;23.20;53.30
3678;DHT22;1855;50.934;6.958;2023-05-10T13:31:54;23.10;53.10
3678;DHT22;1855;50.934;6.958;2023-05-10T13:34:21;22.90;52.00
3678;DHT22;1855;50.934;6.958;2023-05-10T13:36:49;22.40;53.90
3678;DHT22;1855;50.934;6.958;2023-05-10T13:39:16;21.60;55.20
3678;DHT22;1855;50.934;6.958;2023-05-10T13:41:43;21.20;56.30
3678;DHT22;1855;50.934;6.958;2023-05-10T13:44:12;21.00;57.40
3678;DHT22;1855;50.934;6.958;2023-05-10T13:46:39;21.10;57.60
3678;DHT22;1855;50.934;6.958;2023-05-10T13:49:06;21.30;57.40
3678;DHT22;1855;50.934;6.958;2023-05-10T13:51:33;21.30;56.90
3678;DHT22;1855;50.934;6.958;2023-05-10T13:54:02;21.50;55.70
3678;DHT22;1855;50.934;6.958;2023-05-10T13:56:29;21.70;55.40
3678;DHT22;1855;50.934;6.958;2023-05-10T13:58:56;21.30;54.90
3678;DHT22;1855;50.934;6.958;2023-05-10T14:01:23;20.90;57.30
3678;DHT22;1855;50.934;6.958;2023-05-10T14:03:50;20.60;58.20
3678;DHT22;1855;50.934;6.958;2023-05-10T14:06:17;20.90;60.30
3678;DHT22;1855;50.934;6.958;2023-05-10T14:08:43;21.40;56.60
3678;DHT22;1855;50.934;6.958;2023-05-10T14:11:12;21.90;54.00
3678;DHT22;1855;50.934;6.958;2023-05-10T14:13:39;22.10;53.00
3678;DHT22;1855;50.934;6.958;2023-05-10T14:16:06;22.30;53.30
3678;DHT22;1855;50.934;6.958;2023-05-10T14:18:33;23.40;51.90
3678;DHT22;1855;50.934;6.958;2023-05-10T14:21:00;25.00;48.30
3678;DHT22;1855;50.934;6.958;2023-05-10T14:23:26;25.50;46.70
3678;DHT22;1855;50.934;6.958;2023-05-10T14:25:54;25.70;43.80
3678;DHT22;1855;50.934;6.958;2023-05-10T14:28:22;26.70;41.90
3678;DHT22;1855;50.934;6.958;2023-05-10T14:30:50;26.00;41.70
3678;DHT22;1855;50.934;6.958;2023-05-10T14:33:17;25.00;45.00
3678;DHT22;1855;50.934;6.958;2023-05-10T14:35:44;24.40;45.90
3678;DHT22;1855;50.934;6.958;2023-05-10T14:38:12;23.70;47.90
3678;DHT22;1855;50.934;6.958;2023-05-10T14:40:38;23.10;49.30
3678;DHT22;1855;50.934;6.958;2023-05-10T14:43:05;22.40;48.80
3678;DHT22;1855;50.934;6.958;2023-05-10T14:45:33;21.80;53.30
3678;DHT22;1855;50.934;6.958;2023-05-10T14:48:00;21.50;54.50
3678;DHT22;1855;50.934;6.958;2023-05-10T14:50:30;21.10;54.00
3678;DHT22;1855;50.934;6.958;2023-05-10T14:52:56;20.70;54.70
3678;DHT22;1855;50.934;6.958;2023-05-10T14:55:23;20.30;57.60
3678;DHT22;1855;50.934;6.958;2023-05-10T14:57:50;20.40;58.30
3678;DHT22;1855;50.934;6.958;2023-05-10T15:00:17;20.50;58.20
3678;DHT22;1855;50.934;6.958;2023-05-10T15:02:46;20.70;56.00
3678;DHT22;1855;50.934;6.958;2023-05-10T15:05:13;20.60;56.70
3678;DHT22;1855;50.934;6.958;2023-05-10T15:07:40;20.60;57.30
3678;DHT22;1855;50.934;6.958;2023-05-10T15:10:09;21.10;57.30
3678;DHT22;1855;50.934;6.958;2023-05-10T15:12:35;21.90;56.00
3678;DHT22;1855;50.934;6.958;2023-05-10T15:15:03;22.90;50.10
3678;DHT22;1855;50.934;6.958;2023-05-10T15:17:29;23.60;47.40
3678;DHT22;1855;50.934;6.958;2023-05-10T15:19:58;23.60;48.30
3678;DHT22;1855;50.934;6.958;2023-05-10T15:22:25;23.00;47.70
3678;DHT22;1855;50.934;6.958;2023-05-10T15:24:53;22.60;49.50
3678;DHT22;1855;50.934;6.958;2023-05-10T15:27:20;23.10;51.40
3678;DHT22;1855;50.934;6.958;2023-05-10T15:29:46;24.50;49.70
3678;DHT22;1855;50.934;6.958;2023-05-10T15:32:13;26.10;45.00
3678;DHT22;1855;50.934;6.958;2023-05-10T15:34:40;27.30;41.80
3678;DHT22;1855;50.934;6.958;2023-05-10T15:37:08;28.10;39.20
3678;DHT22;1855;50.934;6.958;2023-05-10T15:39:35;28.80;37.60
3678;DHT22;1855;50.934;6.958;2023-05-10T15:42:02;29.00;36.60
3678;DHT22;1855;50.934;6.958;2023-05-10T15:44:29;29.10;35.10
3678;DHT22;1855;50.934;6.958;2023-05-10T15:46:56;28.90;35.40
3678;DHT22;1855;50.934;6.958;2023-05-10T15:49:22;28.40;34.30
3678;DHT22;1855;50.934;6.958;2023-05-10T15:51:49;27.80;35.50
3678;DHT22;1855;50.934;6.958;2023-05-10T15:54:17;27.40;37.10
3678;DHT22;1855;50.934;6.958;2023-05-10T15:56:44;27.10;37.60
3678;DHT22;1855;50.934;6.958;2023-05-10T15:59:11;27.10;38.00
3678;DHT22;1855;50.934;6.958;2023-05-10T16:01:37;26.30;38.80
3678;DHT22;1855;50.934;6.958;2023-05-10T16:04:04;25.60;40.50
3678;DHT22;1855;50.934;6.958;2023-05-10T16:06:31;24.80;40.80
3678;DHT22;1855;50.934;6.958;2023-05-10T16:08:58;23.70;44.20
3678;DHT22;1855;50.934;6.958;2023-05-10T16:11:26;22.80;47.00
3678;DHT22;1855;50.934;6.958;2023-05-10T16:13:53;22.10;49.90
3678;DHT22;1855;50.934;6.958;2023-05-10T16:16:20;21.80;52.20